createdAt,value
2019-04-10T00:04:07.051Z,90.80
2019-04-10T00:06:52.200Z,90.70
2019-04-10T00:09:37.536Z,90.80
2019-04-10T00:12:31.814Z,90.70
2019-04-10T00:15:26.350Z,90.80
2019-04-10T00:18:20.029Z,90.90
2019-04-10T00:21:20.954Z,90.70
2019-04-10T00:24:06.260Z,90.80
2019-04-10T00:26:52.274Z,90.90
2019-04-10T00:29:36.319Z,90.90
2019-04-10T00:32:45.921Z,90.90
2019-04-10T00:35:55.846Z,90.90
2019-04-10T00:38:41.880Z,90.80
2019-04-10T00:41:36.439Z,90.90
2019-04-10T00:47:59.549Z,91.00
2019-04-10T00:50:46.533Z,91.10
2019-04-10T00:53:41.250Z,91.40
2019-04-10T00:56:26.293Z,91.30
2019-04-10T00:59:12.204Z,91.30
2019-04-10T01:02:05.423Z,91.20
2019-04-10T01:04:50.892Z,91.40
2019-04-10T01:07:45.966Z,91.50
2019-04-10T01:10:31.228Z,91.40
2019-04-10T01:13:16.728Z,91.60
2019-04-10T01:16:01.547Z,91.80
2019-04-10T01:18:47.857Z,91.90
2019-04-10T01:21:42.043Z,92.00
2019-04-10T01:24:27.872Z,91.90
2019-04-10T01:27:21.884Z,92.20
2019-04-10T01:30:07.212Z,92.20
2019-04-10T01:32:52.660Z,92.40
2019-04-10T01:35:38.287Z,92.30
2019-04-10T01:38:31.614Z,92.20
2019-04-10T01:41:17.388Z,92.70
2019-04-10T01:44:11.148Z,92.50
2019-04-10T01:47:04.685Z,92.40
2019-04-10T01:49:50.310Z,92.70
2019-04-10T01:52:44.989Z,92.70
2019-04-10T01:55:38.822Z,92.60
2019-04-10T01:58:32.866Z,92.70
2019-04-10T02:01:36.740Z,92.40
2019-04-10T02:04:21.762Z,92.70
2019-04-10T02:07:07.661Z,92.70
2019-04-10T02:09:52.459Z,92.50
2019-04-10T02:12:37.236Z,92.50
2019-04-10T02:15:21.847Z,92.40
2019-04-10T02:18:06.493Z,92.60
2019-04-10T02:20:51.516Z,92.60
2019-04-10T02:23:36.545Z,92.40
2019-04-10T02:26:21.752Z,92.10
2019-04-10T02:29:07.132Z,91.70
2019-04-10T02:31:52.898Z,91.70
2019-04-10T02:34:39.340Z,91.90
2019-04-10T02:37:33.307Z,91.90
2019-04-10T02:40:19.342Z,91.90
2019-04-10T02:43:05.456Z,91.60
2019-04-10T02:45:51.201Z,91.40
2019-04-10T02:48:44.537Z,91.30
2019-04-10T02:51:30.625Z,91.20
2019-04-10T02:54:15.491Z,90.80
2019-04-10T02:57:01.211Z,90.70
2019-04-10T02:59:46.636Z,90.60
2019-04-10T03:02:33.382Z,90.50
2019-04-10T03:05:20.041Z,90.30
2019-04-10T03:08:05.446Z,90.10
2019-04-10T03:10:59.009Z,90.10
2019-04-10T03:13:47.294Z,90.40
2019-04-10T03:16:31.903Z,90.00
2019-04-10T03:19:17.058Z,90.50
2019-04-10T03:22:10.634Z,90.20
2019-04-10T03:24:55.359Z,90.20
2019-04-10T03:27:42.775Z,90.40
2019-04-10T03:30:38.911Z,90.50
2019-04-10T03:37:07.596Z,90.80
2019-04-10T03:39:53.178Z,90.80
2019-04-10T03:42:39.122Z,90.70
2019-04-10T03:45:24.390Z,90.90
2019-04-10T03:48:09.610Z,90.70
2019-04-10T03:51:01.846Z,90.60
2019-04-10T03:53:46.822Z,90.70
2019-04-10T03:56:33.895Z,90.70
2019-04-10T03:59:18.443Z,90.50
2019-04-10T04:02:11.965Z,90.40
2019-04-10T04:04:56.648Z,90.70
2019-04-10T04:07:41.495Z,90.60
2019-04-10T04:10:26.763Z,90.60
2019-04-10T04:13:20.215Z,90.50
2019-04-10T04:16:05.484Z,90.50
2019-04-10T04:18:59.762Z,90.50
2019-04-10T04:21:54.260Z,90.50
2019-04-10T04:24:40.019Z,90.40
2019-04-10T04:27:25.027Z,90.40
2019-04-10T04:30:10.683Z,90.50
2019-04-10T04:32:56.049Z,90.70
2019-04-10T04:35:40.858Z,90.60
2019-04-10T04:38:25.604Z,90.40
2019-04-10T04:41:11.081Z,90.40
2019-04-10T04:43:55.683Z,90.70
2019-04-10T04:46:42.830Z,90.60
2019-04-10T04:49:28.375Z,90.50
2019-04-10T04:52:21.634Z,90.50
2019-04-10T04:55:06.413Z,90.90
2019-04-10T04:57:51.406Z,90.70
2019-04-10T05:00:35.919Z,90.70
2019-04-10T05:03:20.765Z,90.80
2019-04-10T05:06:06.206Z,91.10
2019-04-10T05:08:52.716Z,90.90
2019-04-10T05:11:46.884Z,91.00
2019-04-10T05:14:40.551Z,91.30
2019-04-10T05:17:25.540Z,91.10
2019-04-10T05:20:11.112Z,90.90
2019-04-10T05:22:55.628Z,90.80
2019-04-10T05:25:49.750Z,90.90
2019-04-10T05:28:44.567Z,90.90
2019-04-10T05:31:37.679Z,90.70
2019-04-10T05:34:22.656Z,90.60
2019-04-10T05:37:07.360Z,90.60
2019-04-10T05:40:01.784Z,90.70
2019-04-10T05:42:47.164Z,90.30
2019-04-10T05:45:40.791Z,90.20
2019-04-10T05:48:26.469Z,90.40
2019-04-10T05:51:11.067Z,90.20
2019-04-10T05:53:55.518Z,90.00
2019-04-10T05:56:50.340Z,89.30
2019-04-10T05:59:36.218Z,89.90
2019-04-10T06:02:23.042Z,89.60
2019-04-10T06:05:07.949Z,90.00
2019-04-10T06:07:53.844Z,89.80
2019-04-10T06:10:47.811Z,89.50
2019-04-10T06:13:41.395Z,89.90
2019-04-10T06:16:26.315Z,89.70
2019-04-10T06:19:11.425Z,90.00
2019-04-10T06:22:05.236Z,89.90
2019-04-10T06:24:49.752Z,89.50
2019-04-10T06:27:34.811Z,89.10
2019-04-10T06:30:20.277Z,89.80
2019-04-10T06:33:13.751Z,90.00
2019-04-10T06:35:58.312Z,89.70
2019-04-10T06:38:43.335Z,89.00
2019-04-10T06:41:28.176Z,87.80
2019-04-10T06:44:13.952Z,87.80
2019-04-10T06:46:59.943Z,87.10
2019-04-10T06:49:53.298Z,87.90
2019-04-10T06:52:38.738Z,87.80
2019-04-10T06:55:32.373Z,87.60
2019-04-10T06:58:17.939Z,88.60
2019-04-10T07:01:02.640Z,87.90
2019-04-10T07:04:02.071Z,86.90
2019-04-10T07:06:58.657Z,86.50
2019-04-10T07:09:38.139Z,86.90
2019-04-10T07:12:24.403Z,86.60
2019-04-10T07:15:09.136Z,86.10
2019-04-10T07:17:53.767Z,86.70
2019-04-10T07:20:38.243Z,86.00
2019-04-10T07:23:33.444Z,84.70
2019-04-10T07:26:31.779Z,84.30
2019-04-10T07:29:05.887Z,85.20
2019-04-10T07:31:50.912Z,84.70
2019-04-10T07:34:35.992Z,84.70
2019-04-10T07:37:29.619Z,84.50
2019-04-10T07:40:14.406Z,83.90
2019-04-10T07:42:59.103Z,84.80
2019-04-10T07:45:43.935Z,84.20
2019-04-10T07:48:29.449Z,84.70
2019-04-10T07:51:22.759Z,84.50
2019-04-10T07:54:08.160Z,84.00
2019-04-10T07:57:02.120Z,84.60
2019-04-10T07:59:46.376Z,84.30
2019-04-10T08:02:31.742Z,83.80
2019-04-10T08:05:16.679Z,84.10
2019-04-10T08:08:10.587Z,83.70
2019-04-10T08:10:57.305Z,84.10
2019-04-10T08:13:51.248Z,83.90
2019-04-10T08:16:36.035Z,83.70
2019-04-10T08:19:18.975Z,83.70
2019-04-10T08:22:10.823Z,84.00
2019-04-10T08:25:04.552Z,84.50
2019-04-10T08:27:50.127Z,84.50
2019-04-10T08:30:36.208Z,84.90
2019-04-10T08:33:30.197Z,84.70
2019-04-10T08:36:23.550Z,84.60
2019-04-10T08:39:08.159Z,83.80
2019-04-10T08:41:52.503Z,84.20
2019-04-10T08:44:46.619Z,83.50
2019-04-10T08:47:39.759Z,83.50
2019-04-10T08:50:24.324Z,83.10
2019-04-10T08:53:09.673Z,83.40
2019-04-10T08:55:54.596Z,83.50
2019-04-10T08:58:39.179Z,84.00
2019-04-10T09:01:23.542Z,84.60
2019-04-10T09:04:07.911Z,84.70
2019-04-10T09:07:03.846Z,82.80
2019-04-10T09:09:47.989Z,81.30
2019-04-10T09:12:33.716Z,81.40
2019-04-10T09:15:18.283Z,82.70
2019-04-10T09:18:03.954Z,82.70
2019-04-10T09:20:49.104Z,81.90
2019-04-10T09:23:50.249Z,81.60
2019-04-10T09:26:30.571Z,81.00
2019-04-10T09:29:16.073Z,80.20
2019-04-10T09:32:11.156Z,80.70
2019-04-10T09:34:56.285Z,79.70
2019-04-10T09:37:40.695Z,79.30
2019-04-10T09:40:25.201Z,79.60
2019-04-10T09:43:09.235Z,79.90
2019-04-10T09:46:04.263Z,80.20
2019-04-10T09:48:49.762Z,79.30
2019-04-10T09:51:43.875Z,79.40
2019-04-10T09:54:28.852Z,79.10
2019-04-10T09:57:13.321Z,78.40
2019-04-10T09:59:57.759Z,78.10
2019-04-10T10:02:42.011Z,77.40
2019-04-10T10:05:35.591Z,78.00
2019-04-10T10:08:20.489Z,77.90
2019-04-10T10:11:06.138Z,77.10
2019-04-10T10:13:52.269Z,77.80
2019-04-10T10:16:46.311Z,77.30
2019-04-10T10:19:40.634Z,75.80
2019-04-10T10:22:33.843Z,75.60
2019-04-10T10:25:19.366Z,75.90
2019-04-10T10:28:13.579Z,76.20
2019-04-10T10:30:58.201Z,75.30
2019-04-10T10:33:43.236Z,74.20
2019-04-10T10:36:36.793Z,74.60
2019-04-10T10:39:23.319Z,73.60
2019-04-10T10:42:17.270Z,75.40
2019-04-10T10:45:02.905Z,73.90
2019-04-10T10:47:50.541Z,74.10
2019-04-10T10:50:35.424Z,73.70
2019-04-10T10:53:20.150Z,73.60
2019-04-10T10:56:04.911Z,74.10
2019-04-10T10:58:50.263Z,74.20
2019-04-10T11:01:44.250Z,73.70
2019-04-10T11:04:38.039Z,73.10
2019-04-10T11:07:22.908Z,73.90
2019-04-10T11:10:08.524Z,73.10
2019-04-10T11:12:53.597Z,72.60
2019-04-10T11:15:48.533Z,71.60
2019-04-10T11:18:42.563Z,71.70
2019-04-10T11:21:36.755Z,72.60
2019-04-10T11:24:31.574Z,72.90
2019-04-10T11:27:16.242Z,71.80
2019-04-10T11:30:01.508Z,71.60
2019-04-10T11:32:48.745Z,71.40
2019-04-10T11:35:43.804Z,70.70
2019-04-10T11:38:29.873Z,70.60
2019-04-10T11:41:15.035Z,69.00
2019-04-10T11:44:00.309Z,69.50
2019-04-10T11:46:55.607Z,69.50
2019-04-10T11:52:36.366Z,70.40
2019-04-10T11:55:19.791Z,67.80
2019-04-10T11:57:59.962Z,68.60
2019-04-10T12:00:56.434Z,68.90
2019-04-10T12:04:05.131Z,68.40
2019-04-10T12:06:53.425Z,67.90
2019-04-10T12:12:31.659Z,67.60
2019-04-10T12:15:17.119Z,68.30
2019-04-10T12:18:02.311Z,67.60
2019-04-10T12:20:57.637Z,67.30
2019-04-10T12:23:43.491Z,66.50
2019-04-10T12:26:28.130Z,66.60
2019-04-10T12:29:14.074Z,66.70
2019-04-10T12:31:58.688Z,64.80
2019-04-10T12:34:43.108Z,65.60
2019-04-10T12:37:37.152Z,65.10
2019-04-10T12:40:30.758Z,64.70
2019-04-10T12:43:16.754Z,64.70
2019-04-10T12:46:02.358Z,64.70
2019-04-10T12:48:55.579Z,64.10
2019-04-10T12:51:41.551Z,63.50
2019-04-10T12:54:35.521Z,65.00
2019-04-10T12:57:29.258Z,63.60
2019-04-10T13:00:18.131Z,62.70
2019-04-10T13:03:03.123Z,63.00
2019-04-10T13:05:48.028Z,63.20
2019-04-10T13:08:51.558Z,62.90
2019-04-10T13:11:19.031Z,62.30
2019-04-10T13:14:03.687Z,61.40
2019-04-10T13:16:48.020Z,61.50
2019-04-10T13:19:42.860Z,61.40
2019-04-10T13:22:28.447Z,60.90
2019-04-10T13:25:22.283Z,61.40
2019-04-10T13:28:08.237Z,60.80
2019-04-10T13:30:55.267Z,61.50
2019-04-10T13:33:40.512Z,60.90
2019-04-10T13:36:33.625Z,60.30
2019-04-10T13:39:19.292Z,59.80
2019-04-10T13:42:05.013Z,59.90
2019-04-10T13:44:49.298Z,59.50
2019-04-10T13:47:34.419Z,59.70
2019-04-10T13:50:19.459Z,59.20
2019-04-10T13:53:04.107Z,59.50
2019-04-10T13:55:48.652Z,59.20
2019-04-10T13:58:33.695Z,59.10
2019-04-10T14:04:52.167Z,58.40
2019-04-10T14:07:47.274Z,58.10
2019-04-10T14:10:32.255Z,57.40
2019-04-10T14:13:25.723Z,56.60
2019-04-10T14:16:10.815Z,56.00
2019-04-10T14:18:55.427Z,56.00
2019-04-10T14:21:40.748Z,56.00
2019-04-10T14:24:42.750Z,56.20
2019-04-10T14:27:24.411Z,56.60
2019-04-10T14:33:21.288Z,56.40
2019-04-10T14:36:07.571Z,55.80
2019-04-10T14:39:10.486Z,55.90
2019-04-10T14:41:49.777Z,55.40
2019-04-10T14:44:44.418Z,54.60
2019-04-10T14:47:29.735Z,54.90
2019-04-10T14:50:17.738Z,54.70
2019-04-10T14:53:01.366Z,55.10
2019-04-10T14:55:46.233Z,55.20
2019-04-10T14:58:32.386Z,54.70
2019-04-10T15:01:17.778Z,54.70
2019-04-10T15:04:11.317Z,54.90
2019-04-10T15:06:56.063Z,54.10
2019-04-10T15:09:40.819Z,54.30
2019-04-10T15:12:25.396Z,54.00
2019-04-10T15:15:10.158Z,53.90
2019-04-10T15:17:56.040Z,54.00
2019-04-10T15:20:49.385Z,54.10
2019-04-10T15:23:33.745Z,53.40
2019-04-10T15:26:19.696Z,53.80
2019-04-10T15:29:12.970Z,53.80
2019-04-10T15:31:57.991Z,53.70
2019-04-10T15:34:43.772Z,53.70
2019-04-10T15:37:29.003Z,52.70
2019-04-10T15:40:19.819Z,53.10
2019-04-10T15:43:00.801Z,52.70
2019-04-10T15:45:54.778Z,53.20
2019-04-10T15:48:39.451Z,53.10
2019-04-10T15:51:27.933Z,53.10
2019-04-10T15:54:21.531Z,53.20
2019-04-10T15:57:06.836Z,53.10
2019-04-10T16:00:00.959Z,53.30
2019-04-10T16:02:55.363Z,52.50
2019-04-10T16:05:48.719Z,51.90
2019-04-10T16:08:36.466Z,51.60
2019-04-10T16:11:41.644Z,51.70
2019-04-10T16:14:29.022Z,51.80
2019-04-10T16:20:51.143Z,52.10
2019-04-10T16:23:42.520Z,51.80
2019-04-10T16:26:27.281Z,51.30
2019-04-10T16:29:12.825Z,51.50
2019-04-10T16:32:08.371Z,51.40
2019-04-10T16:35:01.687Z,50.90
2019-04-10T16:37:47.451Z,51.30
2019-04-10T16:40:32.439Z,51.60
2019-04-10T16:43:16.954Z,51.70
2019-04-10T16:46:11.185Z,52.00
2019-04-10T16:49:04.735Z,51.50
2019-04-10T16:51:50.215Z,52.00
2019-04-10T16:54:45.258Z,52.40
2019-04-10T16:57:31.003Z,52.80
2019-04-10T17:00:17.118Z,53.00
2019-04-10T17:03:02.012Z,52.90
2019-04-10T17:05:47.912Z,52.80
2019-04-10T17:08:41.423Z,53.00
2019-04-10T17:11:27.099Z,53.00
2019-04-10T17:14:22.001Z,53.30
2019-04-10T17:17:08.347Z,53.30
2019-04-10T17:20:05.730Z,53.50
2019-04-10T17:23:00.584Z,53.60
2019-04-10T17:25:46.427Z,53.80
2019-04-10T17:28:30.914Z,53.70
2019-04-10T17:31:16.238Z,54.30
2019-04-10T17:34:01.249Z,54.60
2019-04-10T17:36:47.355Z,54.30
2019-04-10T17:39:31.799Z,54.30
2019-04-10T17:42:16.715Z,54.60
2019-04-10T17:45:01.011Z,54.40
2019-04-10T17:47:55.263Z,54.20
2019-04-10T17:50:41.520Z,54.40
2019-04-10T17:53:35.732Z,54.40
2019-04-10T17:56:28.795Z,54.30
2019-04-10T17:59:14.192Z,54.80
2019-04-10T18:02:01.154Z,55.00
2019-04-10T18:04:46.343Z,55.00
2019-04-10T18:07:32.201Z,54.70
2019-04-10T18:10:25.421Z,55.00
2019-04-10T18:13:09.859Z,55.10
2019-04-10T18:15:55.413Z,55.10
2019-04-10T18:18:49.323Z,55.30
2019-04-10T18:21:35.029Z,55.70
2019-04-10T18:24:28.447Z,55.90
2019-04-10T18:27:14.314Z,55.80
2019-04-10T18:29:59.369Z,55.90
2019-04-10T18:32:44.151Z,56.10
2019-04-10T18:35:29.101Z,56.40
2019-04-10T18:38:13.675Z,57.00
2019-04-10T18:41:02.322Z,56.70
2019-04-10T18:43:44.535Z,56.70
2019-04-10T18:46:29.421Z,56.90
2019-04-10T18:49:14.231Z,57.10
2019-04-10T18:51:58.904Z,57.30
2019-04-10T18:54:52.086Z,57.30
2019-04-10T18:57:37.027Z,57.60
2019-04-10T19:07:40.561Z,58.80
2019-04-10T19:11:23.111Z,59.20
2019-04-10T19:13:40.330Z,59.30
2019-04-10T19:16:43.514Z,59.10
2019-04-10T19:19:57.439Z,59.60
2019-04-10T19:23:10.745Z,59.40
2019-04-10T19:26:39.874Z,59.00
2019-04-10T19:33:18.365Z,59.70
2019-04-10T19:36:50.122Z,59.80
2019-04-10T19:43:24.253Z,59.50
2019-04-10T19:46:33.340Z,59.30
2019-04-10T19:59:46.017Z,67.20
2019-04-10T20:03:18.008Z,67.60
2019-04-10T20:17:33.159Z,71.60
2019-04-10T20:19:17.167Z,72.10
2019-04-10T20:29:23.225Z,71.80
2019-04-10T20:40:09.823Z,74.50
2019-04-10T20:46:36.749Z,74.60
2019-04-10T20:55:51.442Z,66.00
2019-04-10T21:02:18.026Z,60.60
2019-04-10T21:09:19.108Z,59.20
2019-04-10T21:15:40.237Z,58.80
2019-04-10T21:22:03.805Z,58.60
2019-04-10T21:25:41.657Z,57.80
2019-04-10T21:40:35.467Z,56.10
2019-04-10T21:44:46.033Z,56.10
2019-04-10T21:47:30.578Z,55.90
2019-04-10T21:50:15.171Z,55.80
2019-04-10T21:52:59.720Z,55.50
2019-04-10T21:55:45.859Z,54.70
2019-04-10T21:58:40.802Z,53.70
2019-04-10T22:01:26.315Z,53.80
2019-04-10T22:04:23.117Z,53.60
2019-04-10T22:10:44.733Z,53.30
2019-04-10T22:13:30.189Z,53.40
2019-04-10T22:16:17.844Z,53.30
2019-04-10T22:19:12.160Z,53.40
2019-04-10T22:22:06.282Z,53.80
2019-04-10T22:24:59.812Z,54.00
2019-04-10T22:27:44.536Z,54.50
2019-04-10T22:30:29.691Z,54.20
2019-04-10T22:33:13.990Z,54.10
2019-04-10T22:35:58.443Z,53.80
2019-04-10T22:38:44.070Z,53.70
2019-04-10T22:41:30.833Z,53.00
2019-04-10T22:44:14.800Z,53.10
2019-04-10T22:47:00.882Z,53.10
2019-04-10T22:49:47.157Z,53.00
2019-04-10T22:52:40.603Z,53.00
2019-04-10T22:55:26.062Z,53.40
2019-04-10T22:58:21.155Z,52.90
2019-04-10T23:01:06.853Z,52.90
2019-04-10T23:03:51.116Z,53.30
2019-04-10T23:06:35.847Z,52.90
2019-04-10T23:09:20.439Z,53.00
2019-04-10T23:12:03.728Z,53.20
2019-04-10T23:14:58.732Z,53.20
2019-04-10T23:18:21.381Z,53.40
2019-04-10T23:21:06.314Z,53.60
2019-04-10T23:23:51.611Z,53.80
2019-04-10T23:26:37.437Z,53.80
2019-04-10T23:29:22.327Z,53.90
2019-04-10T23:32:17.237Z,54.10
2019-04-10T23:35:03.295Z,54.40
2019-04-10T23:37:57.385Z,54.50
2019-04-10T23:40:51.502Z,54.00
2019-04-10T23:43:37.806Z,54.10
2019-04-10T23:46:31.251Z,53.60
2019-04-10T23:49:15.904Z,53.30
2019-04-10T23:52:01.328Z,53.20
2019-04-10T23:54:47.207Z,53.40
2019-04-10T23:57:31.571Z,53.00
